Time;durP1;ratioP1;P1;durP2;ratioP2;P2;SDS_P1;SDS_P2;PMS_P1;PMS_P2;Temp;Humidity;BMP_temperature;BMP_pressure;BME280_temperature;BME280_humidity;BME280_pressure;Samples;Min_cycle;Max_cycle;Signal;HPM_P1;HPM_P2
2022/01/27 00:01:29;;;;;;;6.22;3.40;;;;;;;4.71;81.50;102808.25;5033182;27;98199;-36
2022/01/27 00:04:14;;;;;;;10.43;6.00;;;;;;;4.73;81.91;102805.59;5034181;27;99479;-36
2022/01/27 00:06:40;;;;;;;13.50;4.65;;;;;;;4.70;81.86;102782.34;5032327;28;96626;-36
2022/01/27 00:09:14;;;;;;;12.02;5.07;;;;;;;4.80;81.62;102792.13;5033523;28;96772;-36
2022/01/27 00:11:42;;;;;;;8.55;4.18;;;;;;;4.84;81.61;102796.56;5034933;28;98138;-35
2022/01/27 00:14:08;;;;;;;8.00;3.78;;;;;;;4.72;81.49;102776.94;5034569;28;97805;-36
2022/01/27 00:16:40;;;;;;;10.88;5.32;;;;;;;4.83;81.64;102800.13;5035024;27;96444;-36
2022/01/27 00:19:05;;;;;;;4.00;2.20;;;;;;;4.83;81.82;102796.56;5033358;28;96684;-36
2022/01/27 00:21:31;;;;;;;12.07;5.82;;;;;;;4.67;81.67;102763.53;5034716;27;97277;-36
2022/01/27 00:23:57;;;;;;;12.02;3.72;;;;;;;4.74;81.57;102769.78;5034966;28;97709;-36
2022/01/27 00:26:23;;;;;;;12.63;3.90;;;;;;;4.75;81.80;102771.56;5033434;28;96732;-36
2022/01/27 00:28:49;;;;;;;12.95;6.10;;;;;;;4.82;81.98;102784.94;5033285;28;96682;-36
2022/01/27 00:31:17;;;;;;;9.68;4.32;;;;;;;4.92;82.02;102792.94;5032661;28;101685;-36
2022/01/27 00:33:44;;;;;;;6.15;3.53;;;;;;;4.90;81.67;102777.72;5032919;28;100504;-36
2022/01/27 00:36:10;;;;;;;11.77;4.95;;;;;;;4.80;81.72;102765.25;5033272;28;96725;-36
2022/01/27 00:38:36;;;;;;;11.05;5.72;;;;;;;4.93;81.78;102784.84;5033219;28;96878;-36
2022/01/27 00:41:01;;;;;;;9.60;3.90;;;;;;;4.75;82.01;102772.47;5034356;28;98017;-36
2022/01/27 00:43:27;;;;;;;10.23;3.90;;;;;;;4.83;81.99;102780.47;5034448;27;97903;-36
2022/01/27 00:45:52;;;;;;;10.07;5.70;;;;;;;4.91;81.80;102784.00;5034799;27;96702;-36
2022/01/27 00:48:18;;;;;;;13.20;5.50;;;;;;;4.84;81.80;102764.34;5034862;27;96736;-36
2022/01/27 00:50:48;;;;;;;5.90;3.65;;;;;;;4.87;81.49;102760.75;5034423;27;97842;-36
2022/01/27 00:53:42;;;;;;;9.15;4.65;;;;;;;4.99;81.69;102776.78;5034408;27;97781;-36
2022/01/27 00:56:15;;;;;;;5.50;3.72;;;;;;;4.98;81.98;102779.44;5033334;27;96767;-36
2022/01/27 00:58:52;;;;;;;8.10;3.67;;;;;;;4.91;82.01;102757.16;5032613;28;96892;-36
2022/01/27 01:01:21;;;;;;;9.73;5.43;;;;;;;4.97;81.73;102773.19;5034143;27;97922;-36
2022/01/27 01:03:49;;;;;;;19.33;5.03;;;;;;;4.92;81.55;102764.28;5033168;27;97914;-36
2022/01/27 01:17:05;;;;;;;6.60;3.20;;;;;;;5.07;80.06;102758.78;5035258;27;96602;-36
2022/01/27 01:29:27;;;;;;;16.17;5.35;;;;;;;5.11;80.01;102703.28;5038033;28;96436;-36
2022/01/27 01:32:55;;;;;;;10.80;5.93;;;;;;;5.12;80.81;102713.09;5034943;27;97449;-36
2022/01/27 01:35:29;;;;;;;9.13;4.70;;;;;;;4.99;80.58;102706.94;5037085;27;99883;-36
2022/01/27 01:37:58;;;;;;;10.60;4.95;;;;;;;4.98;81.35;102707.88;5037601;27;96570;-36
2022/01/27 01:40:23;;;;;;;12.30;5.00;;;;;;;4.99;81.00;102706.06;5037624;27;96803;-36
2022/01/27 01:42:49;;;;;;;7.15;3.58;;;;;;;4.98;81.05;102705.19;5037032;28;97464;-36
2022/01/27 01:45:17;;;;;;;17.50;5.80;;;;;;;5.07;81.17;102707.75;5037367;27;97341;-36
2022/01/27 01:47:43;;;;;;;11.40;4.78;;;;;;;4.91;81.48;102679.28;5035180;28;96676;-36
2022/01/27 01:50:10;;;;;;;9.77;5.05;;;;;;;5.01;81.44;102697.09;5035786;28;96766;-36
2022/01/27 01:52:35;;;;;;;12.75;3.15;;;;;;;5.01;81.82;102697.09;5035430;28;101540;-36
2022/01/27 01:55:02;;;;;;;7.30;3.25;;;;;;;5.03;81.54;102706.03;5036530;28;97746;-36
2022/01/27 01:57:27;;;;;;;16.60;4.82;;;;;;;4.90;81.50;102669.44;5035525;28;96661;-36
2022/01/27 01:59:53;;;;;;;10.73;5.47;;;;;;;4.90;81.58;102669.44;5035706;28;96873;-36
2022/01/27 02:02:18;;;;;;;9.05;3.63;;;;;;;4.96;81.65;102687.28;5036352;27;97378;-36
2022/01/27 02:04:44;;;;;;;8.13;3.88;;;;;;;5.00;81.52;102694.41;5037079;27;97320;-36
2022/01/27 02:07:29;;;;;;;12.35;3.78;;;;;;;4.84;81.99;102678.44;5037102;27;96610;-36
2022/01/27 02:10:08;;;;;;;15.90;5.97;;;;;;;4.96;82.02;102706.06;5035584;28;96769;-36
2022/01/27 02:18:07;;;;;;;9.95;4.35;;;;;;;4.88;82.10;102682.84;5037175;28;96541;-36
2022/01/27 02:20:35;;;;;;;6.82;3.85;;;;;;;4.89;82.04;102694.50;5037072;27;96623;-36
2022/01/27 02:23:03;;;;;;;10.93;5.10;;;;;;;4.71;82.36;102654.38;5034881;28;101122;-36
2022/01/27 02:25:35;;;;;;;12.60;3.92;;;;;;;4.70;82.55;102650.81;5034772;28;103453;-36
2022/01/27 02:28:01;;;;;;;7.95;4.03;;;;;;;4.66;82.59;102660.66;5036579;27;96580;-35
2022/01/27 02:30:27;;;;;;;7.85;3.90;;;;;;;4.74;82.40;102668.66;5036393;27;96777;-36
2022/01/27 02:32:53;;;;;;;8.32;4.45;;;;;;;4.78;82.63;102689.22;5034731;28;101068;-36
2022/01/27 02:35:26;;;;;;;9.82;4.78;;;;;;;4.80;83.07;102689.22;5036126;28;97886;-36
2022/01/27 02:37:52;;;;;;;6.00;3.40;;;;;;;4.75;82.87;102680.31;5036015;27;96586;-36
2022/01/27 02:40:34;;;;;;;7.43;3.97;;;;;;;4.82;83.06;102687.41;5035073;28;96836;-36
2022/01/27 02:43:03;;;;;;;9.63;5.15;;;;;;;4.80;83.08;102683.84;5036382;27;97827;-36
2022/01/27 02:45:58;;;;;;;7.32;3.03;;;;;;;4.78;83.34;102682.97;5034514;28;100777;-36
2022/01/27 02:48:23;;;;;;;12.18;6.68;;;;;;;4.62;83.27;102664.31;5036690;27;96571;-36
2022/01/27 02:50:49;;;;;;;11.60;4.55;;;;;;;4.64;83.36;102665.16;5036343;27;96751;-36
2022/01/27 02:53:14;;;;;;;8.20;4.95;;;;;;;4.66;83.19;102657.09;5035825;27;97543;-36
2022/01/27 02:55:39;;;;;;;13.60;4.05;;;;;;;4.74;83.35;102665.97;5035362;28;121706;-36
2022/01/27 02:58:05;;;;;;;7.72;3.50;;;;;;;4.67;83.14;102656.19;5036005;27;96815;-36
2022/01/27 03:00:32;;;;;;;10.23;5.05;;;;;;;4.77;83.43;102660.59;5036240;27;97083;-36
2022/01/27 03:02:57;;;;;;;14.75;6.63;;;;;;;4.73;83.17;102653.47;5033041;28;100916;-36
2022/01/27 03:05:23;;;;;;;10.43;4.57;;;;;;;4.65;83.29;102626.69;5034104;28;99953;-36
2022/01/27 03:07:48;;;;;;;7.22;3.22;;;;;;;4.66;83.14;102633.81;5035762;27;96548;-36
2022/01/27 03:10:19;;;;;;;10.95;4.70;;;;;;;4.66;83.52;102617.72;5036133;28;96725;-36
2022/01/27 03:12:46;;;;;;;11.50;5.13;;;;;;;4.57;83.30;102595.44;5034269;28;100979;-36
2022/01/27 03:15:12;;;;;;;13.98;4.85;;;;;;;4.58;83.27;102586.50;5035642;27;97356;-36
2022/01/27 03:17:40;;;;;;;10.10;5.68;;;;;;;4.52;83.40;102584.75;5035949;27;96722;-36
2022/01/27 03:20:08;;;;;;;13.98;5.13;;;;;;;4.54;83.09;102587.44;5034739;28;96863;-36
2022/01/27 03:22:34;;;;;;;9.63;4.78;;;;;;;4.52;83.74;102586.56;5017226;28;101059;-36
2022/01/27 03:24:59;;;;;;;9.05;4.65;;;;;;;4.47;83.73;102584.78;5035477;27;97296;-36
2022/01/27 03:27:26;;;;;;;10.40;4.65;;;;;;;4.55;83.90;102605.28;5034218;28;117888;-36
2022/01/27 03:29:51;;;;;;;10.35;4.45;;;;;;;4.49;83.86;102591.94;5035528;28;96717;-36
2022/01/27 03:32:18;;;;;;;18.33;5.65;;;;;;;4.51;83.84;102579.41;5035488;27;97844;-36
2022/01/27 03:34:44;;;;;;;8.07;4.15;;;;;;;4.48;83.78;102582.97;5033909;28;100795;-36
2022/01/27 03:37:09;;;;;;;13.32;4.72;;;;;;;4.37;83.82;102567.00;5035361;28;96618;-36
2022/01/27 03:39:39;;;;;;;19.60;5.20;;;;;;;4.44;84.23;102581.25;5035707;27;96642;-36
2022/01/27 03:42:06;;;;;;;16.35;6.75;;;;;;;4.45;84.25;102575.84;5032893;28;100976;-36
2022/01/27 03:44:31;;;;;;;9.05;3.70;;;;;;;4.43;84.70;102566.97;5034015;28;101371;-36
2022/01/27 03:46:57;;;;;;;6.90;3.13;;;;;;;4.44;84.22;102573.19;5034899;27;108188;-36
2022/01/27 03:49:23;;;;;;;5.60;3.13;;;;;;;4.45;84.17;102570.47;5035257;27;96760;-36
2022/01/27 03:51:48;;;;;;;10.40;3.72;;;;;;;4.42;84.45;102575.88;5033023;28;101433;-36
2022/01/27 03:54:14;;;;;;;8.75;4.32;;;;;;;4.43;84.50;102569.63;5034969;27;97763;-36
2022/01/27 03:56:40;;;;;;;4.20;2.90;;;;;;;4.30;84.49;102549.16;5033887;28;96558;-36
2022/01/27 03:59:05;;;;;;;7.80;4.03;;;;;;;4.29;84.38;102531.31;5035018;27;99874;-36
2022/01/27 04:01:31;;;;;;;8.55;3.60;;;;;;;4.37;84.79;102550.00;5035078;28;98006;-36
2022/01/27 04:03:59;;;;;;;7.40;4.50;;;;;;;4.26;84.76;102525.94;5033998;27;97728;-36
2022/01/27 04:06:33;;;;;;;6.55;3.42;;;;;;;4.40;85.04;102553.53;5033721;28;96484;-36
2022/01/27 04:08:59;;;;;;;14.68;5.43;;;;;;;4.48;84.73;102553.47;5035719;27;96590;-36
2022/01/27 04:11:24;;;;;;;6.03;3.42;;;;;;;4.29;84.98;102517.91;5033328;28;100893;-36
2022/01/27 04:13:49;;;;;;;11.30;3.35;;;;;;;4.38;85.37;102528.50;5034665;27;97059;-36
2022/01/27 04:16:15;;;;;;;15.98;6.80;;;;;;;4.41;84.87;102531.19;5033489;28;117171;-36
2022/01/27 04:18:40;;;;;;;8.07;4.40;;;;;;;4.43;84.96;102517.75;5034854;28;96798;-36
2022/01/27 04:21:05;;;;;;;7.63;3.58;;;;;;;4.58;85.03;102544.47;5033508;28;126550;-36
2022/01/27 04:23:30;;;;;;;5.22;2.83;;;;;;;4.58;85.55;102541.78;5033797;28;117252;-36
2022/01/27 04:25:56;;;;;;;11.77;2.30;;;;;;;4.59;85.70;102529.25;5034126;27;110814;-36
2022/01/27 04:28:26;;;;;;;11.43;3.58;;;;;;;4.57;86.12;102514.94;5034961;27;96748;-36
2022/01/27 04:30:54;;;;;;;4.00;2.00;;;;;;;4.72;85.91;102538.03;5034661;28;97947;-35
2022/01/27 04:33:24;;;;;;;4.05;2.78;;;;;;;4.67;85.73;102519.31;5034428;27;97771;-36
2022/01/27 04:35:50;;;;;;;14.00;3.22;;;;;;;4.73;85.42;102521.94;5034640;27;96513;-36
2022/01/27 04:38:41;;;;;;;6.00;2.20;;;;;;;4.79;85.99;102531.72;5033407;28;96792;-36
2022/01/27 04:41:17;;;;;;;7.30;4.18;;;;;;;4.77;85.46;102507.59;5033486;27;99120;-36
2022/01/27 04:43:59;;;;;;;15.57;3.63;;;;;;;4.78;85.65;102513.84;5034436;27;98314;-36
2022/01/27 04:46:32;;;;;;;8.98;3.60;;;;;;;4.73;85.40;102494.22;5034744;27;96484;-36
2022/01/27 04:49:01;;;;;;;6.03;3.33;;;;;;;4.80;85.48;102502.19;5034820;27;96569;-36
2022/01/27 04:51:28;;;;;;;8.02;3.47;;;;;;;4.97;85.62;102504.66;5032899;27;99816;-36
2022/01/27 04:54:06;;;;;;;3.65;2.47;;;;;;;4.98;85.35;102509.16;5036211;28;101022;-36
2022/01/27 04:56:33;;;;;;;12.48;3.83;;;;;;;4.98;85.42;102505.56;5038376;28;96605;-35
2022/01/27 04:59:04;;;;;;;12.25;3.45;;;;;;;5.02;85.20;102507.31;5036797;28;96672;-36
2022/01/27 05:01:35;;;;;;;3.00;1.58;;;;;;;5.03;86.31;102503.69;5037555;28;99761;-36
2022/01/27 05:04:06;;;;;;;11.55;3.25;;;;;;;4.97;86.01;102499.31;5037297;28;97848;-36
2022/01/27 05:06:31;;;;;;;11.45;2.92;;;;;;;5.11;85.65;102515.25;5035962;28;96941;-36
2022/01/27 05:08:56;;;;;;;3.30;2.25;;;;;;;5.02;86.10;102486.69;5036527;28;96861;-36
2022/01/27 05:11:30;;;;;;;8.35;2.83;;;;;;;5.17;85.85;102496.34;5037309;28;105280;-36
2022/01/27 05:14:05;;;;;;;3.22;1.90;;;;;;;5.15;85.90;102484.78;5037389;28;99025;-36
2022/01/27 05:16:30;;;;;;;6.32;2.00;;;;;;;5.16;85.67;102493.72;5037970;27;96644;-36
2022/01/27 05:18:55;;;;;;;8.07;3.20;;;;;;;5.21;85.31;102498.09;5037793;27;96725;-36
2022/01/27 05:21:21;;;;;;;5.97;2.55;;;;;;;5.35;85.39;102508.69;5037545;27;97969;-36
2022/01/27 05:23:46;;;;;;;12.02;2.75;;;;;;;5.42;85.61;102513.06;5037665;28;97783;-36
2022/01/27 05:26:12;;;;;;;8.80;3.08;;;;;;;5.45;85.19;102498.69;5036690;28;116068;-36
2022/01/27 05:28:37;;;;;;;2.60;1.55;;;;;;;5.42;85.55;102496.94;5037719;28;96804;-36
2022/01/27 05:31:05;;;;;;;9.27;2.00;;;;;;;5.45;85.84;102493.31;5035801;28;127004;-36
2022/01/27 05:33:31;;;;;;;10.70;2.92;;;;;;;5.53;85.73;102499.50;5037017;28;97962;-36
2022/01/27 05:35:56;;;;;;;5.95;2.92;;;;;;;5.48;85.80;102485.22;5035999;28;96635;-36
2022/01/27 05:38:22;;;;;;;6.40;3.92;;;;;;;5.63;85.71;102489.50;5036823;28;109992;-36
2022/01/27 05:40:47;;;;;;;7.45;2.45;;;;;;;5.66;85.39;102481.38;5037077;27;97402;-36
2022/01/27 05:43:13;;;;;;;3.17;1.98;;;;;;;5.72;85.40;102483.97;5036829;27;99166;-36
2022/01/27 05:45:39;;;;;;;4.72;1.95;;;;;;;5.63;86.12;102459.94;5037479;27;96624;-36
2022/01/27 05:48:05;;;;;;;5.35;2.25;;;;;;;5.67;85.74;102453.56;5036176;28;96810;-36
2022/01/27 05:50:30;;;;;;;6.85;3.22;;;;;;;5.72;85.71;102457.06;5037059;28;97433;-36
2022/01/27 05:52:56;;;;;;;8.38;2.22;;;;;;;5.72;85.45;102458.00;5035554;28;100769;-36
2022/01/27 05:55:21;;;;;;;8.75;2.78;;;;;;;5.83;85.85;102467.69;5036011;28;108391;-36
2022/01/27 05:57:46;;;;;;;5.05;2.40;;;;;;;5.85;85.99;102447.91;5037010;27;96930;-36
2022/01/27 06:00:12;;;;;;;8.27;3.30;;;;;;;5.87;85.50;102446.09;5036958;27;97409;-36
2022/01/27 06:02:38;;;;;;;8.95;2.83;;;;;;;5.81;85.39;102431.84;5036267;28;97799;-36
2022/01/27 06:05:04;;;;;;;11.65;2.55;;;;;;;5.93;85.50;102453.16;5033985;28;97269;-36
2022/01/27 06:07:31;;;;;;;6.53;3.35;;;;;;;5.91;85.63;102447.84;5037186;27;96798;-36
2022/01/27 06:09:57;;;;;;;6.47;2.45;;;;;;;5.87;85.53;102432.66;5036679;27;97848;-36
2022/01/27 06:12:23;;;;;;;9.18;3.78;;;;;;;6.01;85.52;102447.72;5035464;28;99877;-36
2022/01/27 06:14:49;;;;;;;9.50;3.60;;;;;;;6.03;85.44;102446.78;5035087;28;96659;-36
2022/01/27 06:17:14;;;;;;;7.22;3.70;;;;;;;6.05;85.52;102449.41;5036875;28;96859;-36
2022/01/27 06:19:44;;;;;;;12.55;3.13;;;;;;;6.05;85.26;102444.03;5035503;28;106052;-36
2022/01/27 06:22:11;;;;;;;7.30;3.25;;;;;;;6.03;85.58;102437.78;5036352;27;97387;-36
2022/01/27 06:24:38;;;;;;;3.63;2.47;;;;;;;6.08;85.80;102439.50;5035412;28;96573;-36
2022/01/27 06:27:04;;;;;;;7.50;3.42;;;;;;;6.05;85.73;102438.66;5035296;28;96903;-36
2022/01/27 06:29:29;;;;;;;9.45;2.90;;;;;;;6.01;85.37;102421.72;5036255;27;97943;-36
2022/01/27 06:31:54;;;;;;;4.53;2.42;;;;;;;6.04;85.54;102420.75;5036233;27;97964;-36
2022/01/27 06:34:20;;;;;;;4.50;2.63;;;;;;;6.15;85.36;102429.53;5036447;28;96598;-36
2022/01/27 06:36:45;;;;;;;4.22;2.00;;;;;;;6.18;85.28;102433.97;5036616;27;96770;-36
2022/01/27 06:39:10;;;;;;;4.85;2.47;;;;;;;6.21;85.43;102432.09;5035283;28;126583;-36
2022/01/27 06:41:36;;;;;;;5.40;3.03;;;;;;;6.22;85.35;102436.59;5036028;28;103126;-36
2022/01/27 06:44:02;;;;;;;6.75;2.00;;;;;;;6.15;85.56;102424.16;5036086;27;97111;-36
2022/01/27 06:46:28;;;;;;;4.93;2.92;;;;;;;6.13;85.44;102420.59;5034939;28;96891;-36
2022/01/27 06:48:53;;;;;;;7.47;2.20;;;;;;;6.25;85.38;102427.56;5036053;28;98178;-36
2022/01/27 06:51:18;;;;;;;13.13;3.45;;;;;;;6.22;85.76;102430.28;5035230;28;122884;-36
2022/01/27 06:53:43;;;;;;;8.77;3.55;;;;;;;5.99;85.66;102385.88;5036452;27;96611;-36
2022/01/27 06:56:09;;;;;;;6.05;2.40;;;;;;;6.16;85.37;102409.78;5036304;27;96726;-36
2022/01/27 06:58:36;;;;;;;5.13;2.42;;;;;;;6.31;85.41;102435.50;5035696;28;98081;-36
2022/01/27 07:01:01;;;;;;;14.02;3.28;;;;;;;6.18;85.41;102410.66;5036117;27;97810;-36
2022/01/27 07:03:27;;;;;;;16.05;3.30;;;;;;;6.21;85.36;102415.09;5035297;27;96769;-36
2022/01/27 07:05:52;;;;;;;10.75;2.63;;;;;;;6.35;85.47;102442.63;5035262;27;111367;-36
2022/01/27 07:08:17;;;;;;;6.75;2.17;;;;;;;6.30;85.60;102439.13;5034481;28;120600;-35
2022/01/27 07:10:42;;;;;;;2.63;1.52;;;;;;;6.35;85.37;102443.50;5035252;28;113108;-36
2022/01/27 07:13:08;;;;;;;6.63;2.30;;;;;;;6.22;85.64;102431.22;5035535;27;99136;-36
2022/01/27 07:15:33;;;;;;;7.25;3.08;;;;;;;6.37;85.64;102456.94;5035548;27;96804;-36
2022/01/27 07:17:58;;;;;;;8.95;2.50;;;;;;;6.36;85.59;102461.44;5035664;27;97859;-36
2022/01/27 07:20:24;;;;;;;5.60;3.13;;;;;;;6.34;86.24;102457.88;5035284;28;105404;-36
2022/01/27 07:22:49;;;;;;;12.15;3.92;;;;;;;6.37;86.79;102459.63;5035983;27;96689;-36
2022/01/27 07:25:14;;;;;;;4.88;1.58;;;;;;;6.34;86.99;102460.59;5035570;28;105969;-36
2022/01/27 07:27:40;;;;;;;5.63;2.60;;;;;;;6.23;86.92;102445.53;5035459;27;97865;-36
2022/01/27 07:30:06;;;;;;;8.35;3.17;;;;;;;6.30;87.54;102464.22;5035413;27;97883;-36
2022/01/27 07:32:31;;;;;;;2.05;1.45;;;;;;;6.29;88.64;102462.47;5033303;28;96632;-36
2022/01/27 07:34:57;;;;;;;6.75;2.10;;;;;;;6.21;88.59;102460.81;5035722;28;96753;-36
2022/01/27 07:37:22;;;;;;;4.32;2.58;;;;;;;6.27;88.84;102469.69;5035321;28;97932;-36
2022/01/27 07:39:48;;;;;;;8.40;2.92;;;;;;;6.13;88.46;102445.69;5035277;27;97826;-36
2022/01/27 07:42:13;;;;;;;7.60;3.08;;;;;;;6.13;88.00;102450.19;5035285;27;101512;-36
2022/01/27 07:44:38;;;;;;;12.27;3.47;;;;;;;6.22;88.28;102458.13;5035532;28;96747;-36
2022/01/27 07:47:04;;;;;;;4.75;2.72;;;;;;;6.17;88.82;102449.22;5034197;28;127785;-36
2022/01/27 07:49:29;;;;;;;5.78;2.90;;;;;;;6.11;89.28;102441.25;5035602;27;97733;-36
2022/01/27 07:51:55;;;;;;;2.95;1.52;;;;;;;6.22;89.29;102462.59;5035489;27;96407;-36
2022/01/27 07:54:20;;;;;;;4.50;2.58;;;;;;;6.22;89.21;102468.88;5035424;27;96742;-36
2022/01/27 07:56:46;;;;;;;8.50;2.00;;;;;;;6.19;89.71;102466.22;5034638;27;98234;-36
2022/01/27 07:59:11;;;;;;;3.58;1.42;;;;;;;6.22;89.06;102471.56;5034939;28;97783;-36
2022/01/27 08:01:36;;;;;;;4.93;2.15;;;;;;;6.09;89.08;102452.03;5034827;27;96664;-36
2022/01/27 08:04:02;;;;;;;4.93;1.73;;;;;;;6.23;89.38;102469.75;5033446;28;116457;-36
2022/01/27 08:06:27;;;;;;;6.00;2.70;;;;;;;6.23;90.11;102475.13;5034816;28;97948;-36
2022/01/27 08:08:52;;;;;;;4.82;1.98;;;;;;;6.13;89.65;102463.66;5032854;28;107525;-36
2022/01/27 08:11:19;;;;;;;3.38;2.08;;;;;;;6.14;89.36;102452.84;5034364;28;108940;-36
2022/01/27 08:13:45;;;;;;;6.10;1.85;;;;;;;6.15;89.99;102456.44;5034080;28;96866;-36
2022/01/27 08:16:10;;;;;;;4.30;2.00;;;;;;;6.19;90.22;102468.91;5033184;28;100496;-36
2022/01/27 08:18:36;;;;;;;6.40;1.80;;;;;;;6.26;90.38;102481.34;5034602;27;98907;-36
2022/01/27 08:21:01;;;;;;;6.40;1.92;;;;;;;6.26;90.32;102481.34;5034786;27;96439;-36
2022/01/27 08:23:27;;;;;;;3.92;1.83;;;;;;;6.30;90.03;102475.00;5034918;28;96879;-36
2022/01/27 08:26:02;;;;;;;3.25;1.85;;;;;;;6.23;90.20;102461.69;5034738;28;97957;-36
2022/01/27 08:28:34;;;;;;;4.68;1.40;;;;;;;6.32;89.98;102475.88;5032486;28;100989;-36
2022/01/27 08:31:00;;;;;;;4.38;2.03;;;;;;;6.33;90.96;102474.94;5034987;27;96654;-36
2022/01/27 08:33:29;;;;;;;2.95;1.45;;;;;;;6.14;90.61;102438.50;5034817;28;96770;-36
2022/01/27 08:35:55;;;;;;;2.10;1.33;;;;;;;6.34;90.55;102479.41;5034521;27;97944;-36
2022/01/27 08:38:20;;;;;;;4.63;1.45;;;;;;;6.29;90.68;102465.16;5034808;28;97308;-36
2022/01/27 08:40:45;;;;;;;5.18;2.17;;;;;;;6.28;90.56;102457.09;5033320;28;96552;-36
2022/01/27 08:43:11;;;;;;;3.97;2.40;;;;;;;6.30;90.77;102453.47;5034872;28;96753;-36
2022/01/27 08:45:39;;;;;;;5.68;2.22;;;;;;;6.34;91.14;102446.22;5033845;28;98192;-36
2022/01/27 08:48:05;;;;;;;3.88;2.05;;;;;;;6.34;91.08;102449.81;5034316;27;97816;-36
2022/01/27 08:50:31;;;;;;;3.55;2.05;;;;;;;6.37;90.95;102452.44;5033208;28;96749;-36
2022/01/27 08:52:56;;;;;;;8.10;2.22;;;;;;;6.49;90.59;102472.88;5034702;27;96760;-36
2022/01/27 08:55:22;;;;;;;7.07;2.50;;;;;;;6.53;90.91;102469.22;5034368;27;97971;-36
2022/01/27 08:57:47;;;;;;;2.90;1.55;;;;;;;6.56;90.86;102473.66;5033850;27;99075;-36
2022/01/27 09:00:13;;;;;;;7.50;2.63;;;;;;;6.48;91.38;102451.34;5034896;28;96423;-36
2022/01/27 09:02:39;;;;;;;7.22;2.65;;;;;;;6.55;91.42;102464.69;5034497;27;96865;-35
2022/01/27 09:05:05;;;;;;;4.95;2.17;;;;;;;6.51;91.13;102459.38;5032511;28;100768;-36
2022/01/27 09:07:30;;;;;;;2.95;1.80;;;;;;;6.62;91.65;102464.56;5033034;28;97912;-36
2022/01/27 09:09:56;;;;;;;4.05;1.95;;;;;;;6.55;91.29;102458.38;5033816;27;96434;-36
2022/01/27 09:12:21;;;;;;;15.27;3.65;;;;;;;6.41;91.17;102420.97;5034346;27;96733;-36
2022/01/27 09:14:47;;;;;;;17.02;2.75;;;;;;;6.56;91.59;102447.59;5033805;28;99624;-36
2022/01/27 09:17:14;;;;;;;3.53;1.48;;;;;;;6.71;91.11;102467.97;5033753;27;99305;-36
2022/01/27 09:19:41;;;;;;;4.72;1.30;;;;;;;6.69;91.08;102467.09;5032939;28;96771;-36
2022/01/27 09:22:12;;;;;;;2.50;1.35;;;;;;;6.62;91.31;102453.78;5034180;28;96705;-36
2022/01/27 09:24:57;;;;;;;7.68;2.20;;;;;;;6.63;90.70;102432.22;5034172;27;96983;-36
2022/01/27 09:27:23;;;;;;;4.05;1.73;;;;;;;6.78;90.84;102453.44;5032855;28;101361;-35
2022/01/27 09:29:49;;;;;;;10.52;2.45;;;;;;;6.70;90.70;102433.00;5032610;28;96848;-35
2022/01/27 09:32:16;;;;;;;5.07;2.63;;;;;;;6.61;91.09;102417.91;5034287;28;96775;-36
2022/01/27 09:34:42;;;;;;;9.30;2.20;;;;;;;6.87;90.99;102446.13;5033011;27;99037;-36
2022/01/27 09:37:08;;;;;;;11.10;2.40;;;;;;;6.86;91.34;102452.41;5032181;28;101034;-36
2022/01/27 09:39:34;;;;;;;3.22;2.03;;;;;;;6.89;91.38;102465.81;5035565;27;96721;-36
2022/01/27 09:42:02;;;;;;;3.47;1.90;;;;;;;6.90;91.24;102462.22;5035862;28;96927;-36
2022/01/27 09:44:30;;;;;;;5.68;2.35;;;;;;;6.67;90.94;102411.50;5035619;28;99440;-36
2022/01/27 09:47:00;;;;;;;5.30;1.75;;;;;;;6.77;90.92;102426.56;5035422;28;101243;-36
2022/01/27 09:49:39;;;;;;;9.60;2.90;;;;;;;6.91;90.58;102440.66;5035643;28;96547;-36
2022/01/27 09:52:05;;;;;;;4.25;2.03;;;;;;;7.01;90.74;102479.06;5037804;27;96862;-36
2022/01/27 09:54:32;;;;;;;4.50;2.58;;;;;;;6.98;91.26;102473.72;5035487;28;100819;-36
2022/01/27 09:56:58;;;;;;;6.03;2.58;;;;;;;6.99;90.34;102472.81;5035378;28;98921;-36
2022/01/27 09:59:24;;;;;;;2.97;1.63;;;;;;;6.95;91.35;102460.31;5034924;28;96574;-36
2022/01/27 10:01:54;;;;;;;6.72;1.90;;;;;;;7.09;90.71;102474.38;5035536;28;96951;-36
2022/01/27 10:04:19;;;;;;;3.20;1.60;;;;;;;7.06;91.16;102466.38;5036192;28;97977;-36
2022/01/27 10:06:45;;;;;;;4.18;1.90;;;;;;;7.05;90.75;102451.13;5036548;28;97833;-36
2022/01/27 10:09:20;;;;;;;6.32;2.28;;;;;;;7.01;90.65;102446.72;5036866;28;96590;-36
2022/01/27 10:11:48;;;;;;;7.90;2.22;;;;;;;7.14;90.65;102474.28;5037115;28;96590;-35
2022/01/27 10:14:31;;;;;;;3.97;2.97;;;;;;;7.05;90.81;102451.13;5036550;28;98047;-36
2022/01/27 10:17:00;;;;;;;15.40;1.90;;;;;;;7.07;90.53;102451.97;5036741;27;99074;-36
2022/01/27 10:19:26;;;;;;;7.90;2.45;;;;;;;7.10;90.75;102443.81;5035412;28;96718;-35
2022/01/27 10:22:00;;;;;;;4.60;2.08;;;;;;;7.28;90.55;102471.31;5035472;28;96759;-36
2022/01/27 10:24:28;;;;;;;4.57;1.77;;;;;;;7.23;90.75;102455.22;5034483;28;100806;-35
2022/01/27 10:27:18;;;;;;;3.90;2.05;;;;;;;7.32;91.25;102475.72;5036347;27;97366;-35
2022/01/27 10:30:35;;;;;;;4.85;2.15;;;;;;;7.26;91.32;102463.25;5035071;28;96608;-36
2022/01/27 10:32:49;;;;;;;3.45;1.35;;;;;;;7.32;90.42;102462.25;5035990;28;96669;-36
2022/01/27 10:35:16;;;;;;;10.10;1.95;;;;;;;7.24;90.22;102454.31;5034880;28;101357;-36
2022/01/27 10:37:59;;;;;;;5.15;1.95;;;;;;;7.41;90.33;102480.88;5034717;28;99162;-36
2022/01/27 10:40:26;;;;;;;3.22;1.65;;;;;;;7.40;90.32;102487.22;5035070;28;96548;-36
2022/01/27 10:43:01;;;;;;;5.15;2.00;;;;;;;7.40;90.30;102484.50;5035387;28;96820;-36
2022/01/27 10:45:26;;;;;;;2.28;1.17;;;;;;;7.37;90.48;102473.81;5034588;28;100766;-36
2022/01/27 10:47:51;;;;;;;7.05;2.00;;;;;;;7.38;90.54;102475.56;5035200;28;124923;-36
2022/01/27 10:50:17;;;;;;;3.55;1.63;;;;;;;7.41;90.68;102475.50;5034673;28;99263;-36
2022/01/27 10:52:52;;;;;;;13.32;2.67;;;;;;;7.43;90.86;102473.66;5036311;27;96631;-35
2022/01/27 10:55:19;;;;;;;3.88;1.83;;;;;;;7.46;90.71;102473.59;5034469;28;101023;-36
2022/01/27 10:57:50;;;;;;;9.02;1.98;;;;;;;7.38;90.25;102464.78;5034234;28;99115;-36
2022/01/27 11:00:23;;;;;;;3.42;1.88;;;;;;;7.43;90.50;102476.34;5036058;28;96729;-36
2022/01/27 11:02:56;;;;;;;7.47;2.25;;;;;;;7.45;90.73;102493.38;5035598;27;96939;-36
2022/01/27 11:05:24;;;;;;;2.75;1.83;;;;;;;7.44;90.90;102489.81;5034046;28;100982;-35
2022/01/27 11:07:50;;;;;;;7.70;1.48;;;;;;;7.45;90.45;102477.22;5034595;28;100733;-35
2022/01/27 11:10:16;;;;;;;3.33;2.15;;;;;;;7.37;90.25;102472.00;5034584;28;96593;-35
2022/01/27 11:12:43;;;;;;;3.05;1.67;;;;;;;7.41;90.21;102470.09;5034677;28;96918;-35
2022/01/27 11:15:13;;;;;;;8.73;2.65;;;;;;;7.50;90.56;102477.97;5035053;27;97976;-36
2022/01/27 11:17:40;;;;;;;8.23;1.73;;;;;;;7.55;90.72;102481.47;5034189;28;100827;-35
2022/01/27 11:20:25;;;;;;;5.05;1.73;;;;;;;7.44;90.78;102462.84;5034362;28;96535;-36
2022/01/27 11:27:53;;;;;;;3.08;1.60;;;;;;;7.47;90.76;102445.72;5035214;27;97332;-36
2022/01/27 11:30:36;;;;;;;3.28;1.73;;;;;;;7.42;90.60;102426.94;5034157;28;96863;-35
2022/01/27 11:33:10;;;;;;;2.90;1.15;;;;;;;7.40;90.82;102419.81;5034643;28;96704;-35
2022/01/27 11:35:36;;;;;;;3.22;1.73;;;;;;;7.62;90.43;102460.63;5033777;28;100964;-36
2022/01/27 11:38:04;;;;;;;4.45;1.98;;;;;;;7.55;90.57;102445.53;5035564;28;97297;-36
2022/01/27 11:40:41;;;;;;;9.95;1.85;;;;;;;7.51;90.46;102430.34;5034914;27;96474;-35
2022/01/27 11:43:17;;;;;;;7.63;2.20;;;;;;;7.59;90.30;102441.84;5035508;27;96756;-35
2022/01/27 11:45:47;;;;;;;4.47;1.80;;;;;;;7.68;90.81;102452.41;5035058;28;99437;-36
2022/01/27 11:48:24;;;;;;;9.60;2.15;;;;;;;7.86;90.27;102472.66;5033664;28;100772;-36
2022/01/27 11:51:11;;;;;;;9.50;1.98;;;;;;;7.87;89.99;102460.97;5035361;27;96690;-36
2022/01/27 11:53:45;;;;;;;1.52;0.95;;;;;;;7.88;90.00;102460.03;5033860;28;96729;-36
2022/01/27 11:56:31;;;;;;;6.13;1.70;;;;;;;7.93;90.38;102479.69;5033585;28;101530;-35
2022/01/27 11:59:02;;;;;;;5.18;1.70;;;;;;;7.94;90.00;102476.06;5034861;27;96890;-36
2022/01/27 12:01:29;;;;;;;6.18;2.33;;;;;;;7.90;89.81;102460.00;5032847;28;96628;-36
2022/01/27 12:04:05;;;;;;;5.80;1.50;;;;;;;7.98;89.90;102477.75;5033450;28;96895;-36
2022/01/27 12:06:32;;;;;;;2.17;1.35;;;;;;;8.01;90.03;102475.00;5034068;27;99545;-36